sensor_id;sensor_type;location;lat;lon;timestamp;pressure;altitude;pressure_sealevel;temperature;humidity
84232;BME280;74368;48.022;13.830;2024-01-06T00:01:24;95395.81;;;2.23;83.47
84232;BME280;74368;48.022;13.830;2024-01-06T00:03:50;95386.22;;;2.16;83.77
84232;BME280;74368;48.022;13.830;2024-01-06T00:06:15;95395.41;;;2.26;83.55
84232;BME280;74368;48.022;13.830;2024-01-06T00:08:41;95397.91;;;2.46;82.51
84232;BME280;74368;48.022;13.830;2024-01-06T00:11:06;95391.78;;;2.45;82.60
84232;BME280;74368;48.022;13.830;2024-01-06T00:13:31;95384.41;;;2.47;82.47
84232;BME280;74368;48.022;13.830;2024-01-06T00:15:57;95365.03;;;2.27;82.96
84232;BME280;74368;48.022;13.830;2024-01-06T00:18:22;95374.06;;;2.26;83.29
84232;BME280;74368;48.022;13.830;2024-01-06T00:20:47;95368.91;;;2.31;83.35
84232;BME280;74368;48.022;13.830;2024-01-06T00:23:13;95368.00;;;2.44;82.75
84232;BME280;74368;48.022;13.830;2024-01-06T00:25:38;95364.84;;;2.29;83.58
84232;BME280;74368;48.022;13.830;2024-01-06T00:28:04;95353.38;;;2.22;83.82
84232;BME280;74368;48.022;13.830;2024-01-06T00:30:29;95364.78;;;2.35;83.55
84232;BME280;74368;48.022;13.830;2024-01-06T00:32:54;95367.69;;;2.58;81.97
84232;BME280;74368;48.022;13.830;2024-01-06T00:35:20;95382.84;;;2.64;81.61
84232;BME280;74368;48.022;13.830;2024-01-06T00:37:45;95383.91;;;2.57;82.29
84232;BME280;74368;48.022;13.830;2024-01-06T00:40:10;95379.47;;;2.44;82.95
84232;BME280;74368;48.022;13.830;2024-01-06T00:42:36;95392.13;;;2.55;82.67
84232;BME280;74368;48.022;13.830;2024-01-06T00:45:01;95396.66;;;2.48;82.71
84232;BME280;74368;48.022;13.830;2024-01-06T00:47:26;95392.75;;;2.57;82.77
84232;BME280;74368;48.022;13.830;2024-01-06T00:49:52;95402.34;;;2.58;82.19
84232;BME280;74368;48.022;13.830;2024-01-06T00:52:17;95397.03;;;2.58;82.54
84232;BME280;74368;48.022;13.830;2024-01-06T00:54:42;95400.09;;;2.62;83.03
84232;BME280;74368;48.022;13.830;2024-01-06T00:57:08;95394.09;;;2.66;82.45
84232;BME280;74368;48.022;13.830;2024-01-06T00:59:33;95389.63;;;2.60;82.54
84232;BME280;74368;48.022;13.830;2024-01-06T01:01:58;95397.19;;;2.63;82.35
84232;BME280;74368;48.022;13.830;2024-01-06T01:04:24;95401.44;;;2.71;82.21
84232;BME280;74368;48.022;13.830;2024-01-06T01:06:49;95397.41;;;2.62;81.68
84232;BME280;74368;48.022;13.830;2024-01-06T01:09:14;95399.09;;;2.56;82.24
84232;BME280;74368;48.022;13.830;2024-01-06T01:11:40;95397.63;;;2.60;82.13
84232;BME280;74368;48.022;13.830;2024-01-06T01:14:06;95416.72;;;2.57;82.24
84232;BME280;74368;48.022;13.830;2024-01-06T01:16:31;95405.47;;;2.55;82.00
84232;BME280;74368;48.022;13.830;2024-01-06T01:18:58;95408.50;;;2.59;82.00
84232;BME280;74368;48.022;13.830;2024-01-06T01:21:23;95402.94;;;2.67;81.68
84232;BME280;74368;48.022;13.830;2024-01-06T01:23:48;95409.28;;;2.66;81.86
84232;BME280;74368;48.022;13.830;2024-01-06T01:26:14;95385.94;;;2.61;81.48
84232;BME280;74368;48.022;13.830;2024-01-06T01:28:39;95399.44;;;2.66;81.65
84232;BME280;74368;48.022;13.830;2024-01-06T01:31:04;95391.88;;;2.63;81.69
84232;BME280;74368;48.022;13.830;2024-01-06T01:33:29;95392.75;;;2.57;82.07
84232;BME280;74368;48.022;13.830;2024-01-06T01:35:55;95396.66;;;2.55;82.11
84232;BME280;74368;48.022;13.830;2024-01-06T01:38:20;95407.19;;;2.75;81.84
84232;BME280;74368;48.022;13.830;2024-01-06T01:40:45;95393.41;;;2.78;81.58
84232;BME280;74368;48.022;13.830;2024-01-06T01:43:20;95393.41;;;2.78;81.34
84232;BME280;74368;48.022;13.830;2024-01-06T01:45:53;95389.16;;;2.70;81.52
84232;BME280;74368;48.022;13.830;2024-01-06T01:48:19;95391.25;;;2.61;81.57
84232;BME280;74368;48.022;13.830;2024-01-06T01:50:45;95373.03;;;2.58;81.70
84232;BME280;74368;48.022;13.830;2024-01-06T01:53:12;95386.69;;;2.68;81.16
84232;BME280;74368;48.022;13.830;2024-01-06T01:55:37;95390.84;;;2.64;81.57
84232;BME280;74368;48.022;13.830;2024-01-06T01:58:03;95393.44;;;2.71;81.46
84232;BME280;74368;48.022;13.830;2024-01-06T02:00:29;95387.88;;;2.73;81.33
84232;BME280;74368;48.022;13.830;2024-01-06T02:02:55;95396.69;;;2.80;81.25
84232;BME280;74368;48.022;13.830;2024-01-06T02:05:21;95386.69;;;2.68;81.18
84232;BME280;74368;48.022;13.830;2024-01-06T02:07:46;95404.72;;;2.73;81.38
84232;BME280;74368;48.022;13.830;2024-01-06T02:10:12;95405.53;;;2.74;81.65
84232;BME280;74368;48.022;13.830;2024-01-06T02:12:38;95392.44;;;2.72;81.65
84232;BME280;74368;48.022;13.830;2024-01-06T02:15:03;95388.94;;;2.72;81.80
84232;BME280;74368;48.022;13.830;2024-01-06T02:17:29;95390.78;;;2.71;81.65
84232;BME280;74368;48.022;13.830;2024-01-06T02:19:54;95373.25;;;2.57;81.96
84232;BME280;74368;48.022;13.830;2024-01-06T02:22:19;95377.00;;;2.49;83.10
84232;BME280;74368;48.022;13.830;2024-01-06T02:24:45;95369.25;;;2.41;82.59
84232;BME280;74368;48.022;13.830;2024-01-06T02:27:10;95373.91;;;2.52;83.09
84232;BME280;74368;48.022;13.830;2024-01-06T02:29:35;95373.59;;;2.67;82.02
84232;BME280;74368;48.022;13.830;2024-01-06T02:32:00;95367.44;;;2.66;81.55
84232;BME280;74368;48.022;13.830;2024-01-06T02:34:26;95368.88;;;2.69;81.54
84232;BME280;74368;48.022;13.830;2024-01-06T02:36:51;95363.75;;;2.67;81.95
84232;BME280;74368;48.022;13.830;2024-01-06T02:39:16;95359.63;;;2.72;81.77
84232;BME280;74368;48.022;13.830;2024-01-06T02:41:41;95357.00;;;2.90;80.73
84232;BME280;74368;48.022;13.830;2024-01-06T02:44:07;95359.53;;;2.85;80.90
84232;BME280;74368;48.022;13.830;2024-01-06T02:46:33;95348.53;;;2.75;81.01
84232;BME280;74368;48.022;13.830;2024-01-06T02:48:59;95349.94;;;2.77;81.56
84232;BME280;74368;48.022;13.830;2024-01-06T02:51:24;95352.16;;;2.80;81.66
84232;BME280;74368;48.022;13.830;2024-01-06T02:53:49;95342.72;;;2.78;81.23
84232;BME280;74368;48.022;13.830;2024-01-06T02:56:14;95343.66;;;2.90;81.05
84232;BME280;74368;48.022;13.830;2024-01-06T02:58:40;95343.63;;;2.96;80.31
84232;BME280;74368;48.022;13.830;2024-01-06T03:01:05;95340.84;;;2.85;81.13
84232;BME280;74368;48.022;13.830;2024-01-06T03:03:30;95337.78;;;2.81;81.41
84232;BME280;74368;48.022;13.830;2024-01-06T03:05:56;95338.66;;;3.00;80.10
84232;BME280;74368;48.022;13.830;2024-01-06T03:08:21;95342.69;;;3.09;79.67
84232;BME280;74368;48.022;13.830;2024-01-06T03:10:48;95351.97;;;3.24;78.91
84232;BME280;74368;48.022;13.830;2024-01-06T03:13:13;95349.38;;;3.18;79.17
84232;BME280;74368;48.022;13.830;2024-01-06T03:15:38;95346.91;;;3.16;79.55
84232;BME280;74368;48.022;13.830;2024-01-06T03:18:04;95351.06;;;3.12;79.57
84232;BME280;74368;48.022;13.830;2024-01-06T03:20:29;95355.25;;;3.02;80.01
84232;BME280;74368;48.022;13.830;2024-01-06T03:22:54;95356.78;;;2.91;80.56
84232;BME280;74368;48.022;13.830;2024-01-06T03:25:20;95355.22;;;2.84;81.40
84232;BME280;74368;48.022;13.830;2024-01-06T03:27:45;95360.16;;;2.80;81.46
84232;BME280;74368;48.022;13.830;2024-01-06T03:30:11;95356.06;;;2.78;81.91
84232;BME280;74368;48.022;13.830;2024-01-06T03:32:36;95356.72;;;2.73;82.41
84232;BME280;74368;48.022;13.830;2024-01-06T03:35:02;95352.63;;;2.71;83.01
84232;BME280;74368;48.022;13.830;2024-01-06T03:37:27;95357.31;;;2.75;82.99
84232;BME280;74368;48.022;13.830;2024-01-06T03:39:52;95356.34;;;2.70;82.63
84232;BME280;74368;48.022;13.830;2024-01-06T03:42:18;95348.78;;;2.66;82.62
84232;BME280;74368;48.022;13.830;2024-01-06T03:44:43;95357.78;;;2.72;82.20
84232;BME280;74368;48.022;13.830;2024-01-06T03:47:08;95356.13;;;2.96;81.18
84232;BME280;74368;48.022;13.830;2024-01-06T03:49:33;95347.56;;;3.12;79.86
84232;BME280;74368;48.022;13.830;2024-01-06T03:51:59;95354.38;;;3.08;80.64
84232;BME280;74368;48.022;13.830;2024-01-06T03:54:24;95349.22;;;3.13;80.82
84232;BME280;74368;48.022;13.830;2024-01-06T03:56:49;95344.13;;;3.05;80.67
84232;BME280;74368;48.022;13.830;2024-01-06T03:59:15;95348.78;;;3.16;80.76
84232;BME280;74368;48.022;13.830;2024-01-06T04:01:40;95342.84;;;3.14;80.67
84232;BME280;74368;48.022;13.830;2024-01-06T04:04:05;95342.38;;;2.99;81.12
84232;BME280;74368;48.022;13.830;2024-01-06T04:06:31;95349.97;;;2.95;82.10
84232;BME280;74368;48.022;13.830;2024-01-06T04:08:57;95353.63;;;3.01;81.05
84232;BME280;74368;48.022;13.830;2024-01-06T04:11:22;95356.03;;;3.27;80.07
84232;BME280;74368;48.022;13.830;2024-01-06T04:13:48;95354.69;;;3.18;79.88
84232;BME280;74368;48.022;13.830;2024-01-06T04:16:13;95354.63;;;3.24;80.22
84232;BME280;74368;48.022;13.830;2024-01-06T04:18:38;95361.75;;;3.30;79.83
84232;BME280;74368;48.022;13.830;2024-01-06T04:21:04;95353.38;;;3.27;79.76
84232;BME280;74368;48.022;13.830;2024-01-06T04:23:33;95354.78;;;3.11;79.52
84232;BME280;74368;48.022;13.830;2024-01-06T04:25:59;95360.78;;;3.25;79.73
84232;BME280;74368;48.022;13.830;2024-01-06T04:28:25;95354.91;;;3.16;79.27
84232;BME280;74368;48.022;13.830;2024-01-06T04:30:51;95362.47;;;3.19;80.07
84232;BME280;74368;48.022;13.830;2024-01-06T04:33:16;95370.03;;;3.22;80.04
84232;BME280;74368;48.022;13.830;2024-01-06T04:35:41;95375.63;;;3.21;79.86
84232;BME280;74368;48.022;13.830;2024-01-06T04:38:07;95375.78;;;3.01;80.82
84232;BME280;74368;48.022;13.830;2024-01-06T04:40:32;95382.47;;;3.10;80.78
84232;BME280;74368;48.022;13.830;2024-01-06T04:42:57;95383.13;;;3.06;80.90
84232;BME280;74368;48.022;13.830;2024-01-06T04:45:23;95376.16;;;3.05;80.92
84232;BME280;74368;48.022;13.830;2024-01-06T04:47:51;95376.44;;;2.97;81.54
84232;BME280;74368;48.022;13.830;2024-01-06T04:50:16;95398.88;;;3.14;80.36
84232;BME280;74368;48.022;13.830;2024-01-06T04:52:42;95397.72;;;3.03;81.08
84232;BME280;74368;48.022;13.830;2024-01-06T04:55:07;95396.72;;;2.98;81.73
84232;BME280;74368;48.022;13.830;2024-01-06T04:57:33;95404.97;;;2.96;80.93
84232;BME280;74368;48.022;13.830;2024-01-06T04:59:58;95406.91;;;3.07;80.87
84232;BME280;74368;48.022;13.830;2024-01-06T05:02:24;95406.47;;;3.10;80.67
84232;BME280;74368;48.022;13.830;2024-01-06T05:04:50;95409.31;;;3.15;80.69
84232;BME280;74368;48.022;13.830;2024-01-06T05:07:15;95412.06;;;3.09;80.72
84232;BME280;74368;48.022;13.830;2024-01-06T05:09:40;95416.72;;;3.13;80.96
84232;BME280;74368;48.022;13.830;2024-01-06T05:12:06;95412.25;;;3.07;81.02
84232;BME280;74368;48.022;13.830;2024-01-06T05:14:31;95425.00;;;3.05;82.00
84232;BME280;74368;48.022;13.830;2024-01-06T05:16:57;95425.88;;;2.99;82.31
84232;BME280;74368;48.022;13.830;2024-01-06T05:19:22;95437.34;;;3.00;82.80
84232;BME280;74368;48.022;13.830;2024-01-06T05:21:48;95430.41;;;2.92;83.53
84232;BME280;74368;48.022;13.830;2024-01-06T05:24:13;95425.38;;;2.84;84.23
84232;BME280;74368;48.022;13.830;2024-01-06T05:26:38;95443.13;;;2.97;84.29
84232;BME280;74368;48.022;13.830;2024-01-06T05:29:04;95437.28;;;2.82;84.47
84232;BME280;74368;48.022;13.830;2024-01-06T05:31:30;95443.56;;;2.87;84.83
84232;BME280;74368;48.022;13.830;2024-01-06T05:33:55;95442.50;;;2.95;84.81
84232;BME280;74368;48.022;13.830;2024-01-06T05:36:20;95463.66;;;2.96;85.03
84232;BME280;74368;48.022;13.830;2024-01-06T05:38:45;95459.50;;;3.00;84.57
84232;BME280;74368;48.022;13.830;2024-01-06T05:41:11;95454.00;;;2.95;85.50
84232;BME280;74368;48.022;13.830;2024-01-06T05:43:36;95449.31;;;2.91;86.04
84232;BME280;74368;48.022;13.830;2024-01-06T05:46:01;95459.38;;;2.89;86.18
84232;BME280;74368;48.022;13.830;2024-01-06T05:48:27;95471.25;;;2.93;86.61
84232;BME280;74368;48.022;13.830;2024-01-06T05:50:52;95464.72;;;2.89;86.80
84232;BME280;74368;48.022;13.830;2024-01-06T05:53:17;95474.13;;;2.91;87.34
84232;BME280;74368;48.022;13.830;2024-01-06T05:55:43;95473.91;;;2.93;87.34
84232;BME280;74368;48.022;13.830;2024-01-06T05:58:09;95476.59;;;2.93;87.43
84232;BME280;74368;48.022;13.830;2024-01-06T06:00:34;95476.91;;;3.03;87.09
84232;BME280;74368;48.022;13.830;2024-01-06T06:02:59;95477.56;;;2.98;87.34
84232;BME280;74368;48.022;13.830;2024-01-06T06:05:24;95490.25;;;3.03;87.61
84232;BME280;74368;48.022;13.830;2024-01-06T06:07:50;95490.22;;;3.09;87.17
84232;BME280;74368;48.022;13.830;2024-01-06T06:10:15;95490.69;;;3.00;87.93
84232;BME280;74368;48.022;13.830;2024-01-06T06:12:43;95496.38;;;3.10;87.75
84232;BME280;74368;48.022;13.830;2024-01-06T06:15:08;95488.38;;;3.10;87.81
84232;BME280;74368;48.022;13.830;2024-01-06T06:17:35;95511.59;;;3.03;88.34
84232;BME280;74368;48.022;13.830;2024-01-06T06:20:01;95515.22;;;3.15;88.24
84232;BME280;74368;48.022;13.830;2024-01-06T06:22:26;95515.28;;;3.08;88.38
84232;BME280;74368;48.022;13.830;2024-01-06T06:24:58;95513.78;;;3.12;88.50
84232;BME280;74368;48.022;13.830;2024-01-06T06:27:24;95510.69;;;3.15;88.86
84232;BME280;74368;48.022;13.830;2024-01-06T06:29:50;95514.88;;;3.05;89.30
84232;BME280;74368;48.022;13.830;2024-01-06T06:32:15;95524.28;;;3.14;89.34
84232;BME280;74368;48.022;13.830;2024-01-06T06:34:41;95530.81;;;3.18;88.92
84232;BME280;74368;48.022;13.830;2024-01-06T06:37:07;95517.47;;;3.18;88.87
84232;BME280;74368;48.022;13.830;2024-01-06T06:39:33;95518.06;;;3.20;88.74
84232;BME280;74368;48.022;13.830;2024-01-06T06:41:59;95524.41;;;3.19;88.56
84232;BME280;74368;48.022;13.830;2024-01-06T06:44:24;95528.31;;;3.23;88.60
84232;BME280;74368;48.022;13.830;2024-01-06T06:46:50;95534.00;;;3.26;88.55
84232;BME280;74368;48.022;13.830;2024-01-06T06:49:16;95540.41;;;3.25;88.76
84232;BME280;74368;48.022;13.830;2024-01-06T06:51:41;95544.03;;;3.31;88.86
84232;BME280;74368;48.022;13.830;2024-01-06T06:54:12;95551.38;;;3.42;88.20
84232;BME280;74368;48.022;13.830;2024-01-06T06:56:37;95546.09;;;3.36;88.33
84232;BME280;74368;48.022;13.830;2024-01-06T06:59:03;95544.03;;;3.31;88.40
84232;BME280;74368;48.022;13.830;2024-01-06T07:01:28;95538.75;;;3.24;88.58
84232;BME280;74368;48.022;13.830;2024-01-06T07:03:53;95550.25;;;3.25;88.97
84232;BME280;74368;48.022;13.830;2024-01-06T07:06:19;95558.66;;;3.28;88.72
84232;BME280;74368;48.022;13.830;2024-01-06T07:08:44;95560.69;;;3.26;88.88
84232;BME280;74368;48.022;13.830;2024-01-06T07:11:09;95567.28;;;3.24;89.51
84232;BME280;74368;48.022;13.830;2024-01-06T07:13:36;95565.25;;;3.26;89.24
84232;BME280;74368;48.022;13.830;2024-01-06T07:16:02;95580.97;;;3.34;89.03
84232;BME280;74368;48.022;13.830;2024-01-06T07:18:27;95580.97;;;3.34;89.03
84232;BME280;74368;48.022;13.830;2024-01-06T07:20:52;95571.34;;;3.33;89.31
84232;BME280;74368;48.022;13.830;2024-01-06T07:23:17;95580.59;;;3.30;89.58
84232;BME280;74368;48.022;13.830;2024-01-06T07:25:43;95571.13;;;3.34;89.26
84232;BME280;74368;48.022;13.830;2024-01-06T07:28:08;95576.69;;;3.33;89.92
84232;BME280;74368;48.022;13.830;2024-01-06T07:30:34;95583.56;;;3.47;89.10
84232;BME280;74368;48.022;13.830;2024-01-06T07:32:59;95577.47;;;3.33;89.63
84232;BME280;74368;48.022;13.830;2024-01-06T07:35:25;95594.78;;;3.56;88.82
84232;BME280;74368;48.022;13.830;2024-01-06T07:37:50;95586.25;;;3.47;88.84
84232;BME280;74368;48.022;13.830;2024-01-06T07:40:16;95591.56;;;3.47;89.13
84232;BME280;74368;48.022;13.830;2024-01-06T07:42:42;95590.75;;;3.47;88.96
84232;BME280;74368;48.022;13.830;2024-01-06T07:45:09;95593.19;;;3.48;89.27
84232;BME280;74368;48.022;13.830;2024-01-06T07:47:34;95601.53;;;3.58;88.98
84232;BME280;74368;48.022;13.830;2024-01-06T07:49:59;95606.88;;;3.58;88.56
84232;BME280;74368;48.022;13.830;2024-01-06T07:52:25;95608.53;;;3.59;88.55
84232;BME280;74368;48.022;13.830;2024-01-06T07:54:50;95608.47;;;3.66;88.17
84232;BME280;74368;48.022;13.830;2024-01-06T07:57:15;95613.22;;;3.64;88.61
84232;BME280;74368;48.022;13.830;2024-01-06T07:59:41;95606.47;;;3.61;88.17
84232;BME280;74368;48.022;13.830;2024-01-06T08:02:06;95619.22;;;3.59;88.42
84232;BME280;74368;48.022;13.830;2024-01-06T08:04:32;95604.03;;;3.53;88.60
84232;BME280;74368;48.022;13.830;2024-01-06T08:06:57;95623.19;;;3.50;89.36
84232;BME280;74368;48.022;13.830;2024-01-06T08:09:22;95616.13;;;3.62;88.32
84232;BME280;74368;48.022;13.830;2024-01-06T08:11:49;95623.97;;;3.57;89.24
84232;BME280;74368;48.022;13.830;2024-01-06T08:14:14;95614.72;;;3.53;89.04
84232;BME280;74368;48.022;13.830;2024-01-06T08:16:39;95613.13;;;3.46;89.44
84232;BME280;74368;48.022;13.830;2024-01-06T08:19:05;95621.13;;;3.46;89.61
84232;BME280;74368;48.022;13.830;2024-01-06T08:21:30;95631.19;;;3.50;90.24
84232;BME280;74368;48.022;13.830;2024-01-06T08:23:55;95630.97;;;3.52;89.96
84232;BME280;74368;48.022;13.830;2024-01-06T08:26:21;95627.53;;;3.45;90.16
84232;BME280;74368;48.022;13.830;2024-01-06T08:28:46;95634.47;;;3.46;89.98
84232;BME280;74368;48.022;13.830;2024-01-06T08:31:11;95636.53;;;3.50;90.35
84232;BME280;74368;48.022;13.830;2024-01-06T08:33:37;95633.59;;;3.58;90.27
84232;BME280;74368;48.022;13.830;2024-01-06T08:36:02;95634.47;;;3.52;90.08
84232;BME280;74368;48.022;13.830;2024-01-06T08:38:27;95650.38;;;3.65;89.57
84232;BME280;74368;48.022;13.830;2024-01-06T08:40:53;95651.25;;;3.59;90.11
84232;BME280;74368;48.022;13.830;2024-01-06T08:43:18;95654.28;;;3.69;89.41
84232;BME280;74368;48.022;13.830;2024-01-06T08:45:44;95652.44;;;3.70;89.80
84232;BME280;74368;48.022;13.830;2024-01-06T08:48:09;95658.16;;;3.73;89.34
84232;BME280;74368;48.022;13.830;2024-01-06T08:50:36;95665.13;;;3.74;88.57
84232;BME280;74368;48.022;13.830;2024-01-06T08:53:01;95658.09;;;3.80;88.63
84232;BME280;74368;48.022;13.830;2024-01-06T08:55:27;95664.53;;;3.72;89.45
84232;BME280;74368;48.022;13.830;2024-01-06T08:57:52;95678.25;;;3.76;89.74
84232;BME280;74368;48.022;13.830;2024-01-06T09:00:18;95668.81;;;3.73;89.22
84232;BME280;74368;48.022;13.830;2024-01-06T09:02:43;95669.44;;;3.75;88.91
84232;BME280;74368;48.022;13.830;2024-01-06T09:05:08;95673.16;;;3.74;89.09
84232;BME280;74368;48.022;13.830;2024-01-06T09:07:33;95676.19;;;3.78;88.25
84232;BME280;74368;48.022;13.830;2024-01-06T09:09:59;95680.88;;;3.82;88.46
84232;BME280;74368;48.022;13.830;2024-01-06T09:12:24;95682.19;;;3.73;88.72
84232;BME280;74368;48.022;13.830;2024-01-06T09:14:49;95689.16;;;3.74;88.67
84232;BME280;74368;48.022;13.830;2024-01-06T09:17:15;95678.50;;;3.74;88.34
84232;BME280;74368;48.022;13.830;2024-01-06T09:19:40;95688.13;;;3.75;88.39
84232;BME280;74368;48.022;13.830;2024-01-06T09:22:06;95677.06;;;3.72;88.42
84232;BME280;74368;48.022;13.830;2024-01-06T09:24:31;95695.47;;;3.86;87.65
84232;BME280;74368;48.022;13.830;2024-01-06T09:26:56;95681.94;;;3.81;87.86
84232;BME280;74368;48.022;13.830;2024-01-06T09:29:22;95689.97;;;3.75;88.07
84232;BME280;74368;48.022;13.830;2024-01-06T09:31:47;95693.09;;;3.72;88.04
84232;BME280;74368;48.022;13.830;2024-01-06T09:34:12;95689.94;;;3.81;87.96
84232;BME280;74368;48.022;13.830;2024-01-06T09:36:38;95690.16;;;3.80;88.43
84232;BME280;74368;48.022;13.830;2024-01-06T09:39:03;95682.75;;;3.82;87.96
84232;BME280;74368;48.022;13.830;2024-01-06T09:41:30;95678.59;;;3.86;87.70
84232;BME280;74368;48.022;13.830;2024-01-06T09:43:55;95687.63;;;3.91;86.96
84232;BME280;74368;48.022;13.830;2024-01-06T09:46:24;95690.94;;;3.87;86.94
84232;BME280;74368;48.022;13.830;2024-01-06T09:48:52;95694.88;;;3.84;87.56
84232;BME280;74368;48.022;13.830;2024-01-06T09:51:19;95682.13;;;3.80;87.41
84232;BME280;74368;48.022;13.830;2024-01-06T09:53:49;95690.84;;;3.69;87.70
84232;BME280;74368;48.022;13.830;2024-01-06T09:56:17;95699.41;;;3.77;87.69
84232;BME280;74368;48.022;13.830;2024-01-06T09:58:43;95694.50;;;3.74;87.98
84232;BME280;74368;48.022;13.830;2024-01-06T10:01:09;95691.44;;;3.71;87.69
84232;BME280;74368;48.022;13.830;2024-01-06T10:03:36;95695.53;;;3.73;88.29
84232;BME280;74368;48.022;13.830;2024-01-06T10:06:02;95686.53;;;3.68;88.01
84232;BME280;74368;48.022;13.830;2024-01-06T10:08:29;95688.72;;;3.77;87.90
84232;BME280;74368;48.022;13.830;2024-01-06T10:10:55;95692.22;;;3.78;87.88
84232;BME280;74368;48.022;13.830;2024-01-06T10:13:20;95686.69;;;3.73;87.43
84232;BME280;74368;48.022;13.830;2024-01-06T10:15:45;95678.56;;;3.61;87.46
84232;BME280;74368;48.022;13.830;2024-01-06T10:18:11;95685.31;;;3.64;88.24
84232;BME280;74368;48.022;13.830;2024-01-06T10:20:37;95682.81;;;3.69;88.00
84232;BME280;74368;48.022;13.830;2024-01-06T10:23:06;95691.25;;;3.66;87.59
84232;BME280;74368;48.022;13.830;2024-01-06T10:25:31;95688.59;;;3.66;87.18
84232;BME280;74368;48.022;13.830;2024-01-06T10:27:57;95681.22;;;3.61;87.68
84232;BME280;74368;48.022;13.830;2024-01-06T10:30:25;95692.34;;;3.58;88.14
84232;BME280;74368;48.022;13.830;2024-01-06T10:32:51;95677.97;;;3.59;87.58
84232;BME280;74368;48.022;13.830;2024-01-06T10:35:17;95673.41;;;3.66;88.02
84232;BME280;74368;48.022;13.830;2024-01-06T10:37:43;95672.63;;;3.59;87.27
84232;BME280;74368;48.022;13.830;2024-01-06T10:40:13;95674.25;;;3.60;87.46
84232;BME280;74368;48.022;13.830;2024-01-06T10:42:39;95678.78;;;3.60;87.30
84232;BME280;74368;48.022;13.830;2024-01-06T10:45:13;95678.78;;;3.60;87.58
84232;BME280;74368;48.022;13.830;2024-01-06T10:47:42;95671.00;;;3.52;87.77
84232;BME280;74368;48.022;13.830;2024-01-06T10:50:08;95667.34;;;3.46;88.03
84232;BME280;74368;48.022;13.830;2024-01-06T10:52:34;95676.34;;;3.52;88.01
84232;BME280;74368;48.022;13.830;2024-01-06T10:55:04;95673.88;;;3.57;88.26
84232;BME280;74368;48.022;13.830;2024-01-06T10:57:30;95672.22;;;3.56;88.27
84232;BME280;74368;48.022;13.830;2024-01-06T10:59:59;95663.59;;;3.54;88.03
84232;BME280;74368;48.022;13.830;2024-01-06T11:02:26;95665.69;;;3.52;87.72
84232;BME280;74368;48.022;13.830;2024-01-06T11:04:52;95667.31;;;3.53;88.04
84232;BME280;74368;48.022;13.830;2024-01-06T11:07:21;95663.22;;;3.50;88.42
84232;BME280;74368;48.022;13.830;2024-01-06T11:09:59;95651.31;;;3.46;88.36
84232;BME280;74368;48.022;13.830;2024-01-06T11:12:28;95658.50;;;3.52;87.67
84232;BME280;74368;48.022;13.830;2024-01-06T11:14:53;95647.84;;;3.46;88.03
84232;BME280;74368;48.022;13.830;2024-01-06T11:17:54;95658.50;;;3.52;88.17
84232;BME280;74368;48.022;13.830;2024-01-06T11:20:24;95649.47;;;3.47;88.45
84232;BME280;74368;48.022;13.830;2024-01-06T11:22:50;95655.00;;;3.52;88.38
84232;BME280;74368;48.022;13.830;2024-01-06T11:25:20;95653.75;;;3.54;88.11
84232;BME280;74368;48.022;13.830;2024-01-06T11:27:47;95651.31;;;3.53;88.09
84232;BME280;74368;48.022;13.830;2024-01-06T11:30:26;95639.41;;;3.49;88.42
84232;BME280;74368;48.022;13.830;2024-01-06T11:32:53;95647.81;;;3.52;88.77
84232;BME280;74368;48.022;13.830;2024-01-06T11:35:19;95641.81;;;3.57;88.50
84232;BME280;74368;48.022;13.830;2024-01-06T11:43:06;95647.13;;;3.63;88.41
84232;BME280;74368;48.022;13.830;2024-01-06T11:45:34;95643.91;;;3.55;86.99
84232;BME280;74368;48.022;13.830;2024-01-06T11:48:01;95634.72;;;3.44;87.51
84232;BME280;74368;48.022;13.830;2024-01-06T11:50:28;95632.00;;;3.51;87.41
84232;BME280;74368;48.022;13.830;2024-01-06T11:52:54;95642.47;;;3.52;88.20
84232;BME280;74368;48.022;13.830;2024-01-06T11:55:21;95628.91;;;3.54;88.57
84232;BME280;74368;48.022;13.830;2024-01-06T11:57:46;95636.72;;;3.55;87.64
84232;BME280;74368;48.022;13.830;2024-01-06T12:00:16;95632.03;;;3.44;87.39
84232;BME280;74368;48.022;13.830;2024-01-06T12:02:41;95637.34;;;3.51;87.74
84232;BME280;74368;48.022;13.830;2024-01-06T12:05:15;95636.13;;;3.47;87.58
84232;BME280;74368;48.022;13.830;2024-01-06T12:07:43;95639.63;;;3.47;88.03
84232;BME280;74368;48.022;13.830;2024-01-06T12:10:09;95629.97;;;3.46;88.06
84232;BME280;74368;48.022;13.830;2024-01-06T12:12:34;95638.38;;;3.50;88.73
84232;BME280;74368;48.022;13.830;2024-01-06T12:14:59;95631.38;;;3.55;88.21
84232;BME280;74368;48.022;13.830;2024-01-06T12:17:29;95623.78;;;3.52;87.50
84232;BME280;74368;48.022;13.830;2024-01-06T12:19:54;95637.56;;;3.49;88.06
84232;BME280;74368;48.022;13.830;2024-01-06T12:22:20;95642.31;;;3.47;88.06
84232;BME280;74368;48.022;13.830;2024-01-06T12:24:49;95632.47;;;3.41;88.11
84232;BME280;74368;48.022;13.830;2024-01-06T12:27:14;95628.00;;;3.35;87.51
84232;BME280;74368;48.022;13.830;2024-01-06T12:29:41;95624.09;;;3.38;87.34
84232;BME280;74368;48.022;13.830;2024-01-06T12:32:07;95629.28;;;3.26;87.66
84232;BME280;74368;48.022;13.830;2024-01-06T12:34:33;95625.78;;;3.25;87.32
84232;BME280;74368;48.022;13.830;2024-01-06T12:36:59;95623.72;;;3.27;88.10
84232;BME280;74368;48.022;13.830;2024-01-06T12:39:27;95623.31;;;3.24;87.52
84232;BME280;74368;48.022;13.830;2024-01-06T12:41:54;95617.97;;;3.24;88.25
84232;BME280;74368;48.022;13.830;2024-01-06T12:44:19;95629.25;;;3.32;87.51
84232;BME280;74368;48.022;13.830;2024-01-06T12:46:45;95617.00;;;3.18;87.08
84232;BME280;74368;48.022;13.830;2024-01-06T12:49:10;95629.94;;;3.15;87.73
84232;BME280;74368;48.022;13.830;2024-01-06T12:51:35;95632.63;;;3.15;87.84
84232;BME280;74368;48.022;13.830;2024-01-06T12:54:00;95629.72;;;3.16;87.56
84232;BME280;74368;48.022;13.830;2024-01-06T12:56:26;95629.72;;;3.23;87.92
84232;BME280;74368;48.022;13.830;2024-01-06T12:58:51;95639.34;;;3.24;87.68